createdAt,value
2019-04-06T00:02:23.630Z,24.93
2019-04-06T00:04:53.407Z,20.77
2019-04-06T00:07:23.104Z,15.23
2019-04-06T00:09:52.833Z,13.40
2019-04-06T00:12:22.575Z,13.47
2019-04-06T00:14:52.239Z,12.30
2019-04-06T00:17:21.891Z,12.83
2019-04-06T00:19:51.632Z,14.20
2019-04-06T00:22:21.275Z,13.47
2019-04-06T00:24:50.939Z,13.60
2019-04-06T00:27:20.651Z,12.17
2019-04-06T00:29:50.377Z,13.40
2019-04-06T00:32:44.977Z,13.53
2019-04-06T00:35:14.648Z,12.93
2019-04-06T00:37:44.312Z,12.33
2019-04-06T00:40:14.218Z,13.03
2019-04-06T00:42:43.909Z,12.10
2019-04-06T00:45:13.607Z,12.63
2019-04-06T00:47:43.262Z,12.70
2019-04-06T00:50:13.159Z,12.53
2019-04-06T00:52:42.857Z,12.13
2019-04-06T00:55:12.568Z,12.93
2019-04-06T00:57:42.242Z,12.17
2019-04-06T01:00:12.078Z,11.87
2019-04-06T01:02:41.739Z,12.07
2019-04-06T01:05:11.709Z,12.37
2019-04-06T01:07:41.434Z,13.40
2019-04-06T01:10:11.344Z,14.50
2019-04-06T01:12:41.007Z,13.00
2019-04-06T01:15:10.808Z,13.33
2019-04-06T01:17:40.454Z,13.13
2019-04-06T01:20:10.272Z,13.43
2019-04-06T01:22:39.939Z,12.83
2019-04-06T01:25:10.505Z,12.43
2019-04-06T01:27:40.293Z,11.97
2019-04-06T01:30:10.987Z,12.60
2019-04-06T01:32:40.693Z,12.80
2019-04-06T01:35:10.339Z,12.40
2019-04-06T01:37:40.005Z,11.80
2019-04-06T01:40:10.048Z,12.23
2019-04-06T01:42:39.747Z,12.40
2019-04-06T01:45:10.310Z,12.57
2019-04-06T01:47:40.005Z,11.90
2019-04-06T01:50:09.809Z,11.53
2019-04-06T01:52:39.478Z,12.63
2019-04-06T01:55:09.346Z,12.93
2019-04-06T01:57:39.058Z,11.53
2019-04-06T02:00:10.747Z,12.57
2019-04-06T02:02:42.355Z,12.43
2019-04-06T02:05:12.359Z,12.23
2019-04-06T02:07:42.032Z,11.80
2019-04-06T02:10:11.970Z,12.30
2019-04-06T02:12:41.689Z,12.83
2019-04-06T02:15:11.492Z,12.20
2019-04-06T02:17:41.111Z,11.60
2019-04-06T02:20:11.032Z,12.80
2019-04-06T02:22:40.686Z,12.10
2019-04-06T02:25:10.382Z,12.80
2019-04-06T02:27:40.152Z,11.67
2019-04-06T02:30:23.712Z,12.13
2019-04-06T02:33:14.077Z,11.93
2019-04-06T02:36:01.189Z,12.47
2019-04-06T02:38:52.284Z,12.73
2019-04-06T02:41:39.360Z,11.83
2019-04-06T02:44:09.134Z,12.97
2019-04-06T02:46:38.821Z,12.87
2019-04-06T02:49:08.530Z,13.33
2019-04-06T02:51:38.208Z,13.37
2019-04-06T02:54:07.969Z,12.67
2019-04-06T02:56:46.004Z,12.63
2019-04-06T02:59:09.108Z,14.20
2019-04-06T03:01:38.837Z,13.90
2019-04-06T03:04:08.500Z,13.33
2019-04-06T03:06:38.161Z,12.60
2019-04-06T03:09:11.273Z,18.17
2019-04-06T03:11:39.382Z,17.77
2019-04-06T03:14:09.071Z,26.87
2019-04-06T03:16:38.769Z,16.73
2019-04-06T03:19:08.637Z,15.57
2019-04-06T03:21:38.348Z,13.87
2019-04-06T03:24:08.126Z,13.77
2019-04-06T03:26:37.871Z,12.90
2019-04-06T03:29:07.562Z,13.03
2019-04-06T03:31:37.310Z,13.53
2019-04-06T03:34:07.041Z,13.13
2019-04-06T03:36:36.720Z,13.20
2019-04-06T03:39:07.698Z,12.80
2019-04-06T03:41:37.416Z,13.70
2019-04-06T03:44:07.112Z,12.67
2019-04-06T03:46:36.846Z,14.00
2019-04-06T03:49:06.633Z,12.90
2019-04-06T03:51:36.792Z,13.20
2019-04-06T03:54:06.475Z,13.50
2019-04-06T03:56:36.251Z,14.17
2019-04-06T03:59:06.107Z,15.03
2019-04-06T04:01:35.878Z,13.40
2019-04-06T04:04:05.597Z,14.33
2019-04-06T04:06:35.251Z,14.50
2019-04-06T04:09:06.386Z,13.93
2019-04-06T04:11:36.086Z,12.97
2019-04-06T04:14:05.872Z,13.70
2019-04-06T04:16:35.561Z,14.23
2019-04-06T04:19:05.206Z,14.93
2019-04-06T04:21:35.019Z,14.17
2019-04-06T04:24:04.721Z,16.30
2019-04-06T04:26:34.437Z,15.83
2019-04-06T04:29:04.160Z,14.23
2019-04-06T04:31:33.852Z,15.07
2019-04-06T04:34:05.028Z,13.63
2019-04-06T04:36:34.693Z,14.33
2019-04-06T04:39:05.950Z,13.47
2019-04-06T04:41:35.705Z,13.10
2019-04-06T04:44:05.895Z,14.20
2019-04-06T04:46:35.561Z,12.83
2019-04-06T04:49:05.358Z,14.07
2019-04-06T04:51:35.011Z,13.53
2019-04-06T04:54:04.831Z,13.87
2019-04-06T04:56:34.523Z,13.87
2019-04-06T04:59:04.218Z,13.47
2019-04-06T05:01:33.920Z,14.63
2019-04-06T05:04:03.683Z,14.20
2019-04-06T05:06:33.520Z,14.10
2019-04-06T05:09:04.061Z,13.67
2019-04-06T05:11:33.733Z,13.43
2019-04-06T05:14:39.212Z,13.33
2019-04-06T05:17:08.883Z,14.90
2019-04-06T05:19:38.586Z,15.37
2019-04-06T05:22:09.024Z,13.93
2019-04-06T05:24:38.723Z,13.93
2019-04-06T05:27:08.396Z,14.87
2019-04-06T05:29:38.976Z,14.23
2019-04-06T05:32:08.700Z,13.87
2019-04-06T05:34:38.580Z,13.43
2019-04-06T05:37:08.347Z,13.57
2019-04-06T05:39:38.142Z,12.63
2019-04-06T05:42:07.845Z,13.77
2019-04-06T05:44:37.689Z,13.70
2019-04-06T05:47:07.618Z,13.90
2019-04-06T05:49:37.608Z,14.30
2019-04-06T05:52:07.332Z,13.80
2019-04-06T05:54:37.944Z,13.53
2019-04-06T05:57:07.687Z,12.60
2019-04-06T05:59:40.318Z,13.80
2019-04-06T06:02:09.928Z,12.90
2019-04-06T06:04:40.547Z,12.87
2019-04-06T06:07:10.938Z,13.20
2019-04-06T06:09:40.635Z,13.43
2019-04-06T06:12:11.876Z,12.87
2019-04-06T06:14:41.593Z,13.13
2019-04-06T06:17:11.259Z,13.20
2019-04-06T06:19:40.935Z,13.23
2019-04-06T06:22:10.623Z,12.67
2019-04-06T06:24:40.373Z,12.10
2019-04-06T06:27:10.346Z,12.60
2019-04-06T06:29:40.150Z,12.60
2019-04-06T06:32:09.933Z,12.57
2019-04-06T06:34:39.670Z,12.30
2019-04-06T06:37:09.338Z,12.87
2019-04-06T06:39:39.416Z,12.27
2019-04-06T06:42:09.439Z,12.53
2019-04-06T06:44:39.114Z,12.57
2019-04-06T06:47:08.842Z,11.40
2019-04-06T06:49:38.514Z,12.30
2019-04-06T06:52:08.209Z,11.80
2019-04-06T06:54:37.908Z,12.17
2019-04-06T06:57:07.835Z,12.17
2019-04-06T06:59:37.545Z,12.67
2019-04-06T07:02:07.216Z,11.93
2019-04-06T07:04:36.962Z,11.73
2019-04-06T07:07:06.636Z,12.27
2019-04-06T07:09:36.353Z,11.70
2019-04-06T07:12:06.391Z,11.90
2019-04-06T07:14:36.136Z,11.20
2019-04-06T07:17:05.798Z,11.47
2019-04-06T07:19:35.496Z,12.23
2019-04-06T07:22:05.162Z,11.17
2019-04-06T07:24:34.830Z,12.20
2019-04-06T07:27:04.495Z,11.53
2019-04-06T07:29:34.242Z,13.03
2019-04-06T07:32:03.903Z,11.00
2019-04-06T07:34:33.591Z,11.50
2019-04-06T07:37:03.365Z,11.43
2019-04-06T07:39:33.028Z,11.00
2019-04-06T07:42:02.776Z,12.20
2019-04-06T07:44:32.493Z,11.23
2019-04-06T07:47:02.198Z,11.20
2019-04-06T07:49:31.956Z,10.67
2019-04-06T07:52:01.673Z,11.13
2019-04-06T07:54:31.496Z,10.37
2019-04-06T07:57:01.191Z,10.10
2019-04-06T07:59:30.962Z,11.17
2019-04-06T08:02:00.765Z,10.13
2019-04-06T08:04:30.552Z,10.43
2019-04-06T08:07:00.468Z,11.13
2019-04-06T08:09:30.158Z,13.47
2019-04-06T08:11:59.845Z,10.87
2019-04-06T08:14:29.592Z,10.20
2019-04-06T08:16:59.281Z,11.70
2019-04-06T08:19:28.964Z,9.93
2019-04-06T08:21:58.653Z,8.97
2019-04-06T08:24:28.320Z,8.50
2019-04-06T08:26:58.003Z,7.77
2019-04-06T08:29:28.371Z,8.80
2019-04-06T08:31:58.106Z,8.77
2019-04-06T08:34:27.977Z,9.17
2019-04-06T08:36:57.721Z,8.67
2019-04-06T08:39:27.424Z,9.30
2019-04-06T08:41:57.702Z,8.13
2019-04-06T08:44:27.474Z,8.00
2019-04-06T08:46:57.578Z,8.70
2019-04-06T08:49:27.252Z,8.43
2019-04-06T08:51:56.909Z,8.53
2019-04-06T08:54:26.606Z,7.90
2019-04-06T08:56:56.294Z,7.90
2019-04-06T08:59:25.957Z,8.53
2019-04-06T09:01:55.693Z,8.00
2019-04-06T09:04:25.419Z,7.93
2019-04-06T09:06:55.595Z,7.90
2019-04-06T09:09:25.341Z,7.93
2019-04-06T09:11:55.256Z,8.07
2019-04-06T09:14:24.867Z,8.77
2019-04-06T09:16:54.551Z,8.30
2019-04-06T09:19:24.681Z,8.57
2019-04-06T09:21:54.378Z,7.80
2019-04-06T09:24:24.036Z,7.57
2019-04-06T09:26:53.812Z,7.80
2019-04-06T09:29:24.587Z,7.60
2019-04-06T09:31:54.946Z,8.37
2019-04-06T09:34:24.742Z,7.23
2019-04-06T09:36:55.131Z,7.20
2019-04-06T09:39:25.047Z,8.10
2019-04-06T09:41:54.723Z,8.10
2019-04-06T09:44:46.424Z,7.20
2019-04-06T09:47:36.259Z,7.97
2019-04-06T09:50:28.840Z,8.50
2019-04-06T09:53:16.213Z,7.80
2019-04-06T09:56:10.831Z,7.43
2019-04-06T09:59:06.623Z,6.77
2019-04-06T10:01:55.905Z,7.17
2019-04-06T10:04:47.677Z,6.87
2019-04-06T10:07:54.453Z,7.47
2019-04-06T10:10:46.035Z,6.50
2019-04-06T10:13:33.319Z,7.00
2019-04-06T10:16:20.764Z,7.67
2019-04-06T10:19:04.091Z,7.63
2019-04-06T10:21:51.179Z,7.00
2019-04-06T10:24:38.375Z,6.93
2019-04-06T10:27:25.647Z,8.20
2019-04-06T10:30:17.114Z,8.13
2019-04-06T10:33:17.966Z,7.70
2019-04-06T10:36:06.599Z,8.27
2019-04-06T10:38:58.259Z,7.80
2019-04-06T10:41:55.708Z,7.60
2019-04-06T10:44:56.348Z,7.83
2019-04-06T10:47:37.858Z,8.67
2019-04-06T10:50:25.518Z,7.67
2019-04-06T10:53:12.743Z,7.83
2019-04-06T10:56:01.404Z,7.50
2019-04-06T10:58:48.572Z,7.33
2019-04-06T11:01:37.370Z,7.57
2019-04-06T11:04:14.683Z,7.67
2019-04-06T11:06:51.129Z,8.17
2019-04-06T11:09:51.988Z,7.53
2019-04-06T11:12:49.399Z,7.90
2019-04-06T11:15:40.997Z,7.77
2019-04-06T11:18:21.186Z,7.40
2019-04-06T11:21:09.990Z,7.60
2019-04-06T11:23:50.080Z,8.30
2019-04-06T11:26:38.692Z,7.60
2019-04-06T11:29:27.284Z,8.63
2019-04-06T11:32:21.912Z,7.87
2019-04-06T11:35:25.937Z,7.10
2019-04-06T11:38:08.532Z,7.50
2019-04-06T11:40:57.105Z,8.37
2019-04-06T11:43:41.507Z,8.03
2019-04-06T11:46:30.087Z,7.77
2019-04-06T11:49:24.631Z,8.40
2019-04-06T11:52:11.321Z,7.80
2019-04-06T11:55:04.868Z,8.20
2019-04-06T11:57:40.603Z,8.10
2019-04-06T12:00:44.860Z,7.80
2019-04-06T12:03:20.252Z,7.87
2019-04-06T12:06:06.563Z,7.80
2019-04-06T12:08:57.336Z,6.87
2019-04-06T12:11:46.111Z,7.87
2019-04-06T12:14:32.878Z,8.10
2019-04-06T12:17:15.407Z,7.47
2019-04-06T12:20:04.432Z,8.00
2019-04-06T12:22:46.734Z,7.57
2019-04-06T12:25:50.583Z,7.60
2019-04-06T12:28:37.647Z,7.87
2019-04-06T12:31:34.981Z,8.00
2019-04-06T12:34:13.409Z,7.40
2019-04-06T12:37:12.281Z,7.10
2019-04-06T12:40:27.516Z,7.83
2019-04-06T12:43:24.277Z,8.17
2019-04-06T12:46:21.971Z,8.07
2019-04-06T12:49:06.410Z,7.77
2019-04-06T12:52:09.955Z,7.30
2019-04-06T12:55:07.334Z,7.50
2019-04-06T12:58:07.862Z,7.70
2019-04-06T13:00:54.788Z,8.10
2019-04-06T13:03:37.462Z,7.70
2019-04-06T13:06:25.271Z,8.57
2019-04-06T13:09:14.452Z,8.60
2019-04-06T13:12:03.277Z,8.67
2019-04-06T13:14:54.959Z,7.23
2019-04-06T13:17:34.082Z,9.17
2019-04-06T13:20:21.368Z,8.80
2019-04-06T13:23:08.591Z,9.60
2019-04-06T13:25:49.036Z,8.33
2019-04-06T13:28:37.607Z,8.90
2019-04-06T13:31:25.009Z,7.80
2019-04-06T13:34:25.677Z,7.30
2019-04-06T13:37:14.340Z,7.30
2019-04-06T13:40:02.266Z,7.90
2019-04-06T13:42:52.022Z,7.47
2019-04-06T13:45:43.780Z,7.93
2019-04-06T13:48:30.654Z,7.50
2019-04-06T13:51:25.012Z,7.23
2019-04-06T13:54:20.459Z,8.17
2019-04-06T13:57:05.950Z,8.13
2019-04-06T14:00:07.639Z,7.70
2019-04-06T14:02:43.512Z,7.73
2019-04-06T14:05:36.880Z,8.03
2019-04-06T14:08:31.243Z,7.37
2019-04-06T14:11:18.638Z,8.27
2019-04-06T14:14:07.207Z,7.93
2019-04-06T14:16:58.788Z,8.10
2019-04-06T14:19:59.501Z,7.27
2019-04-06T14:22:50.715Z,7.77
2019-04-06T14:25:41.332Z,8.03
2019-04-06T14:28:19.535Z,8.17
2019-04-06T14:31:10.888Z,8.13
2019-04-06T14:34:02.861Z,8.53
2019-04-06T14:36:51.713Z,8.03
2019-04-06T14:39:28.614Z,8.00
2019-04-06T14:42:17.240Z,8.73
2019-04-06T14:45:23.692Z,8.90
2019-04-06T14:48:09.587Z,8.87
2019-04-06T14:50:51.976Z,9.33
2019-04-06T14:53:30.253Z,9.10
2019-04-06T14:56:17.651Z,9.97
2019-04-06T14:59:18.306Z,9.67
2019-04-06T15:02:04.516Z,9.40
2019-04-06T15:04:45.796Z,9.37
2019-04-06T15:07:40.375Z,9.40
2019-04-06T15:10:23.181Z,9.53
2019-04-06T15:13:05.787Z,8.90
2019-04-06T15:15:53.435Z,9.43
2019-04-06T15:18:50.098Z,10.50
2019-04-06T15:21:30.977Z,9.47
2019-04-06T15:24:16.499Z,9.17
2019-04-06T15:27:03.948Z,9.30
2019-04-06T15:29:50.815Z,9.17
2019-04-06T15:32:45.727Z,9.60
2019-04-06T15:35:27.592Z,8.70
2019-04-06T15:38:14.760Z,9.27
2019-04-06T15:41:02.879Z,9.47
2019-04-06T15:43:58.138Z,9.57
2019-04-06T15:46:38.956Z,10.23
2019-04-06T15:49:25.154Z,15.13
2019-04-06T15:52:19.828Z,9.77
2019-04-06T15:55:07.378Z,10.60
2019-04-06T15:58:06.376Z,15.37
2019-04-06T16:00:48.478Z,21.17
2019-04-06T16:03:38.259Z,15.03
2019-04-06T16:06:27.075Z,11.20
2019-04-06T16:09:18.467Z,36.63
2019-04-06T16:12:09.624Z,18.43
2019-04-06T16:14:55.207Z,29.13
2019-04-06T16:17:49.586Z,16.70
2019-04-06T16:20:44.085Z,11.10
2019-04-06T16:23:29.815Z,15.03
2019-04-06T16:26:05.283Z,41.77
2019-04-06T16:28:51.944Z,86.23
2019-04-06T16:31:41.603Z,30.50
2019-04-06T16:34:36.097Z,26.20
2019-04-06T16:37:33.766Z,16.53
2019-04-06T16:40:28.370Z,16.60
2019-04-06T16:43:17.032Z,18.80
2019-04-06T16:46:08.303Z,20.27
2019-04-06T16:48:44.698Z,15.87
2019-04-06T16:51:27.199Z,20.67
2019-04-06T16:54:22.393Z,16.50
2019-04-06T16:57:14.002Z,17.57
2019-04-06T17:00:02.648Z,39.37
2019-04-06T17:02:54.166Z,31.47
2019-04-06T17:05:32.697Z,21.53
2019-04-06T17:08:19.645Z,20.20
2019-04-06T17:11:08.330Z,15.83
2019-04-06T17:13:54.773Z,36.90
2019-04-06T17:16:43.395Z,28.17
2019-04-06T17:19:38.166Z,40.73
2019-04-06T17:22:18.225Z,34.57
2019-04-06T17:25:25.066Z,34.00
2019-04-06T17:28:19.620Z,33.83
2019-04-06T17:31:08.831Z,24.93
2019-04-06T17:34:06.201Z,31.13
2019-04-06T17:37:00.582Z,38.77
2019-04-06T17:39:58.496Z,64.10
2019-04-06T17:42:37.906Z,35.30
2019-04-06T17:45:36.079Z,39.73
2019-04-06T17:48:16.865Z,23.10
2019-04-06T17:51:05.629Z,22.40
2019-04-06T17:53:54.212Z,22.43
2019-04-06T17:56:50.924Z,16.03
2019-04-06T17:59:31.718Z,17.53
2019-04-06T18:02:23.882Z,20.00
2019-04-06T18:05:18.480Z,16.23
2019-04-06T18:08:13.131Z,25.20
2019-04-06T18:11:03.376Z,19.77
2019-04-06T18:13:49.899Z,21.87
2019-04-06T18:16:23.147Z,31.60
2019-04-06T18:18:53.490Z,38.90
2019-04-06T18:21:23.606Z,28.97
2019-04-06T18:23:53.650Z,27.23
2019-04-06T18:26:23.378Z,40.50
2019-04-06T18:28:53.173Z,45.03
2019-04-06T18:31:50.617Z,36.80
2019-04-06T18:34:20.376Z,37.97
2019-04-06T18:37:10.052Z,52.00
2019-04-06T18:39:40.324Z,61.57
2019-04-06T18:42:10.609Z,36.23
2019-04-06T18:44:42.155Z,41.67
2019-04-06T18:47:11.898Z,47.03
2019-04-06T18:49:42.398Z,35.93
2019-04-06T18:52:12.436Z,30.37
2019-04-06T18:54:42.174Z,39.03
2019-04-06T18:57:11.858Z,20.73
2019-04-06T18:59:41.542Z,26.07
2019-04-06T19:02:12.512Z,37.43
2019-04-06T19:04:42.908Z,37.50
2019-04-06T19:07:14.222Z,37.33
2019-04-06T19:09:44.155Z,40.57
2019-04-06T19:12:14.426Z,30.57
2019-04-06T19:14:45.101Z,30.57
2019-04-06T19:17:15.470Z,40.60
2019-04-06T19:19:45.545Z,27.13
2019-04-06T19:22:15.321Z,25.23
2019-04-06T19:24:45.120Z,40.70
2019-04-06T19:27:14.882Z,25.43
2019-04-06T19:29:44.640Z,26.53
2019-04-06T19:32:14.803Z,23.43
2019-04-06T19:34:45.401Z,26.10
2019-04-06T19:37:16.001Z,25.27
2019-04-06T19:39:46.574Z,33.07
2019-04-06T19:42:16.328Z,27.77
2019-04-06T19:44:46.328Z,32.43
2019-04-06T19:47:16.718Z,19.30
2019-04-06T19:49:46.673Z,22.50
2019-04-06T19:52:16.403Z,20.30
2019-04-06T19:54:46.153Z,19.23
2019-04-06T19:57:15.953Z,20.13
2019-04-06T19:59:45.768Z,21.77
2019-04-06T20:02:15.848Z,21.93
2019-04-06T20:04:45.670Z,20.43
2019-04-06T20:07:15.378Z,17.77
2019-04-06T20:09:45.035Z,16.80
2019-04-06T20:12:14.699Z,18.33
2019-04-06T20:14:44.391Z,19.07
2019-04-06T20:17:14.287Z,18.77
2019-04-06T20:19:43.988Z,17.70
2019-04-06T20:22:13.795Z,17.33
2019-04-06T20:24:44.110Z,19.80
2019-04-06T20:27:14.267Z,19.13
2019-04-06T20:29:44.284Z,19.07
2019-04-06T20:32:14.350Z,20.53
2019-04-06T20:34:43.976Z,20.83
2019-04-06T20:37:13.882Z,22.40
2019-04-06T20:39:43.647Z,21.80
2019-04-06T20:42:13.567Z,21.80
2019-04-06T20:44:43.628Z,22.47
2019-04-06T20:47:13.675Z,24.30
2019-04-06T20:49:43.451Z,22.13
2019-04-06T20:52:13.627Z,25.10
2019-04-06T20:54:43.284Z,24.17
2019-04-06T20:57:12.998Z,21.93
2019-04-06T20:59:42.685Z,23.93
2019-04-06T21:02:12.744Z,22.80
2019-04-06T21:04:42.831Z,22.97
2019-04-06T21:07:12.900Z,23.30
2019-04-06T21:09:42.576Z,22.87
2019-04-06T21:12:12.730Z,22.83
2019-04-06T21:14:42.875Z,21.87
2019-04-06T21:17:12.538Z,23.90
2019-04-06T21:19:42.761Z,22.37
2019-04-06T21:22:12.707Z,22.50
2019-04-06T21:24:42.893Z,22.63
2019-04-06T21:27:12.677Z,21.97
2019-04-06T21:29:42.367Z,22.20
2019-04-06T21:32:12.790Z,21.10
2019-04-06T21:34:42.682Z,22.67
2019-04-06T21:37:13.414Z,22.17
2019-04-06T21:39:44.021Z,21.70
2019-04-06T21:42:14.511Z,21.67
2019-04-06T21:44:44.303Z,20.93
2019-04-06T21:47:14.292Z,21.00
2019-04-06T21:49:44.597Z,20.83
2019-04-06T21:52:14.542Z,20.37
2019-04-06T21:54:44.257Z,19.60
2019-04-06T21:57:14.187Z,20.47
2019-04-06T21:59:44.031Z,20.77
2019-04-06T22:02:13.828Z,20.80
2019-04-06T22:04:44.143Z,20.53
2019-04-06T22:07:14.306Z,20.30
2019-04-06T22:09:44.039Z,20.73
2019-04-06T22:12:13.708Z,19.00
2019-04-06T22:14:44.021Z,21.80
2019-04-06T22:17:14.391Z,20.70
2019-04-06T22:19:44.203Z,19.90
2019-04-06T22:22:14.508Z,20.67
2019-04-06T22:24:45.102Z,20.73
2019-04-06T22:27:17.954Z,20.43
2019-04-06T22:29:47.663Z,20.43
2019-04-06T22:32:17.903Z,20.60
2019-04-06T22:34:48.595Z,20.53
2019-04-06T22:37:18.620Z,19.60
2019-04-06T22:39:48.870Z,20.03
2019-04-06T22:42:19.318Z,19.87
2019-04-06T22:44:49.375Z,19.50
2019-04-06T22:47:19.736Z,19.43
2019-04-06T22:49:49.903Z,19.73
2019-04-06T22:52:19.601Z,18.47
2019-04-06T22:54:49.280Z,20.70
2019-04-06T22:57:18.969Z,19.00
2019-04-06T22:59:48.626Z,20.07
2019-04-06T23:02:18.303Z,20.70
2019-04-06T23:04:53.959Z,23.27
2019-04-06T23:07:25.482Z,22.20
2019-04-06T23:09:55.135Z,21.40
2019-04-06T23:12:24.799Z,20.57
2019-04-06T23:14:54.532Z,21.50
2019-04-06T23:17:24.214Z,20.63
2019-04-06T23:19:54.557Z,21.63
2019-04-06T23:22:25.088Z,20.53
2019-04-06T23:24:56.312Z,19.77
2019-04-06T23:27:26.218Z,20.60
2019-04-06T23:29:56.121Z,19.63
2019-04-06T23:32:29.615Z,19.60
2019-04-06T23:35:02.013Z,19.03
2019-04-06T23:37:31.116Z,21.00
2019-04-06T23:40:01.583Z,20.70
2019-04-06T23:42:31.897Z,21.87
2019-04-06T23:45:01.557Z,22.03
2019-04-06T23:47:32.336Z,21.80
2019-04-06T23:50:02.059Z,21.23
2019-04-06T23:52:31.716Z,20.50
2019-04-06T23:55:01.378Z,21.43
2019-04-06T23:57:31.540Z,21.13
